Time;durP1;ratioP1;P1;durP2;ratioP2;P2;SDS_P1;SDS_P2;PMS_P1;PMS_P2;Temp;Humidity;BMP_temperature;BMP_pressure;BME280_temperature;BME280_humidity;BME280_pressure;Samples;Min_cycle;Max_cycle;Signal;HPM_P1;HPM_P2
2021/12/11 00:00:22;;;;;;;6.07;3.60;;;5.00;71.50;;;;;;5033417;28;20082;-22
2021/12/11 00:03:05;;;;;;;7.15;4.38;;;5.00;71.50;;;;;;5033185;28;20021;-23
2021/12/11 00:05:34;;;;;;;7.47;3.78;;;4.90;71.50;;;;;;5033330;28;20053;-22
2021/12/11 00:08:01;;;;;;;8.65;5.38;;;4.90;71.50;;;;;;5033845;28;20013;-23
2021/12/11 00:10:38;;;;;;;5.50;3.50;;;4.80;71.60;;;;;;5031838;28;20026;-23
2021/12/11 00:13:08;;;;;;;6.88;3.70;;;4.80;71.70;;;;;;5033209;28;20071;-22
2021/12/11 00:15:39;;;;;;;6.47;3.58;;;4.70;71.70;;;;;;5033458;28;20100;-23
2021/12/11 00:18:09;;;;;;;5.28;3.30;;;4.60;71.80;;;;;;5033337;28;20543;-23
2021/12/11 00:20:40;;;;;;;6.07;3.60;;;4.60;71.90;;;;;;5032867;28;20030;-23
2021/12/11 00:23:07;;;;;;;9.23;5.07;;;4.50;72.00;;;;;;5032964;28;20029;-23
2021/12/11 00:25:42;;;;;;;11.55;6.22;;;4.40;72.00;;;;;;5033059;28;20038;-23
2021/12/11 00:28:09;;;;;;;9.95;6.47;;;4.40;72.10;;;;;;5033434;28;20030;-23
2021/12/11 00:30:40;;;;;;;9.95;5.82;;;4.30;72.50;;;;;;5033091;28;20103;-23
2021/12/11 00:33:19;;;;;;;4.85;3.00;;;4.20;72.40;;;;;;5033291;28;20028;-23
2021/12/11 00:35:45;;;;;;;7.70;4.35;;;4.20;72.50;;;;;;5032746;28;20053;-23
2021/12/11 00:38:17;;;;;;;11.63;7.45;;;4.20;72.70;;;;;;5033007;28;20034;-23
2021/12/11 00:40:46;;;;;;;10.30;6.90;;;4.20;72.70;;;;;;5032954;28;20545;-22
2021/12/11 00:43:17;;;;;;;15.27;9.43;;;4.20;72.70;;;;;;5033226;28;20033;-22
2021/12/11 00:45:47;;;;;;;9.18;5.80;;;4.10;72.70;;;;;;5032809;28;20021;-24
2021/12/11 00:48:20;;;;;;;8.35;4.55;;;4.10;72.60;;;;;;5032992;28;20072;-23
2021/12/11 00:51:09;;;;;;;6.57;4.13;;;4.10;72.60;;;;;;5033141;28;20030;-23
2021/12/11 00:53:38;;;;;;;6.45;4.03;;;4.10;72.50;;;;;;5032841;28;20079;-23
2021/12/11 00:56:31;;;;;;;8.70;5.10;;;4.10;72.50;;;;;;5032770;28;20029;-23
2021/12/11 00:59:00;;;;;;;6.45;4.03;;;4.00;72.50;;;;;;5032758;28;20079;-23
2021/12/11 01:01:34;;;;;;;6.72;3.97;;;4.00;72.50;;;;;;5032758;28;20025;-23
2021/12/11 01:04:10;;;;;;;16.10;10.05;;;4.00;72.50;;;;;;5032876;28;20029;-23
2021/12/11 01:06:53;;;;;;;14.98;9.18;;;3.90;72.60;;;;;;5032542;28;20032;-23
2021/12/11 01:09:24;;;;;;;7.43;4.45;;;3.90;72.70;;;;;;5033035;28;20116;-23
2021/12/11 01:12:02;;;;;;;9.88;4.95;;;3.90;72.80;;;;;;5032687;28;20029;-23
2021/12/11 01:14:43;;;;;;;10.93;6.40;;;3.80;72.70;;;;;;5032740;28;20420;-23
2021/12/11 01:21:02;;;;;;;4.97;3.25;;;3.80;72.80;;;;;;5030564;28;20123;-23
2021/12/11 01:26:03;;;;;;;9.02;4.75;;;3.70;72.80;;;;;;5030578;28;20048;-23
2021/12/11 01:28:30;;;;;;;5.85;3.90;;;3.70;72.90;;;;;;5030239;28;20029;-23
2021/12/11 01:30:57;;;;;;;6.07;3.58;;;3.70;72.90;;;;;;5030595;28;20037;-23
2021/12/11 01:33:23;;;;;;;9.38;5.13;;;3.70;72.80;;;;;;5030255;28;20164;-23
2021/12/11 01:35:50;;;;;;;10.95;6.68;;;3.70;72.80;;;;;;5016850;28;20127;-23
2021/12/11 01:38:22;;;;;;;9.57;5.93;;;3.80;72.80;;;;;;5033608;28;20138;-23
2021/12/11 01:40:53;;;;;;;11.73;6.70;;;3.80;72.80;;;;;;5033723;28;20112;-22
2021/12/11 01:43:24;;;;;;;8.23;5.18;;;3.80;72.70;;;;;;5033892;28;20033;-22
2021/12/11 01:45:53;;;;;;;6.80;4.22;;;3.80;72.70;;;;;;5033798;28;20121;-22
2021/12/11 01:48:23;;;;;;;6.65;4.40;;;3.80;72.60;;;;;;5033423;28;20018;-22
2021/12/11 01:51:17;;;;;;;11.13;6.75;;;3.80;72.50;;;;;;5033674;28;20119;-22
2021/12/11 01:53:50;;;;;;;12.63;7.32;;;3.80;72.50;;;;;;5033659;28;20029;-23
2021/12/11 01:56:21;;;;;;;10.32;6.65;;;3.80;72.40;;;;;;5034617;28;20072;-22
2021/12/11 01:59:00;;;;;;;9.55;5.65;;;3.80;72.50;;;;;;5035510;28;20521;-23
2021/12/11 02:01:37;;;;;;;11.38;6.22;;;3.70;72.40;;;;;;5036326;28;20029;-23
2021/12/11 02:04:07;;;;;;;8.48;4.75;;;3.70;72.40;;;;;;5035736;28;20025;-23
2021/12/11 02:06:39;;;;;;;8.60;5.60;;;3.70;72.50;;;;;;5035337;28;20025;-23
2021/12/11 02:09:20;;;;;;;9.20;5.60;;;3.70;72.50;;;;;;5035467;28;20029;-23
2021/12/11 02:11:50;;;;;;;6.88;4.00;;;3.70;72.70;;;;;;5035401;28;20112;-23
2021/12/11 02:14:24;;;;;;;8.43;4.65;;;3.60;72.60;;;;;;5035106;28;20108;-23
2021/12/11 02:16:52;;;;;;;7.70;4.60;;;3.60;72.60;;;;;;5035235;28;20037;-23
2021/12/11 02:19:31;;;;;;;9.15;5.38;;;3.60;72.70;;;;;;5035031;28;20035;-22
2021/12/11 02:22:12;;;;;;;7.43;3.97;;;3.60;72.70;;;;;;5035208;28;20061;-22
2021/12/11 02:24:41;;;;;;;8.38;5.20;;;3.60;72.70;;;;;;5035009;28;20032;-22
2021/12/11 02:27:17;;;;;;;6.55;4.68;;;3.60;72.70;;;;;;5035052;28;20041;-23
2021/12/11 02:29:55;;;;;;;8.00;4.40;;;3.60;72.60;;;;;;5035372;28;20034;-23
2021/12/11 02:32:35;;;;;;;7.60;4.60;;;3.70;72.50;;;;;;5034817;28;20389;-23
2021/12/11 02:35:15;;;;;;;8.02;4.07;;;3.70;72.50;;;;;;5035349;28;20045;-23
2021/12/11 02:37:48;;;;;;;7.57;4.38;;;3.70;72.50;;;;;;5035107;28;20068;-22
2021/12/11 02:40:22;;;;;;;7.30;3.97;;;3.70;72.40;;;;;;5035048;28;20022;-23
2021/12/11 02:43:04;;;;;;;6.97;3.88;;;3.70;72.30;;;;;;5034998;28;20036;-23
2021/12/11 02:45:45;;;;;;;7.18;4.38;;;3.70;72.30;;;;;;5034596;28;20029;-23
2021/12/11 02:48:22;;;;;;;9.75;6.38;;;3.70;72.20;;;;;;5034942;28;20104;-22
2021/12/11 02:51:04;;;;;;;7.47;4.45;;;3.70;72.20;;;;;;5035003;28;20022;-23
2021/12/11 02:53:47;;;;;;;10.38;5.20;;;3.70;72.20;;;;;;5034866;28;20040;-22
2021/12/11 02:56:25;;;;;;;8.57;5.13;;;3.70;72.20;;;;;;5034682;28;20025;-23
2021/12/11 02:58:57;;;;;;;5.93;3.58;;;3.70;72.20;;;;;;5034406;28;20145;-22
2021/12/11 03:01:25;;;;;;;10.52;6.30;;;3.70;72.30;;;;;;5034457;28;20422;-23
2021/12/11 03:04:34;;;;;;;11.27;6.38;;;3.70;72.40;;;;;;5034575;28;20124;-23
2021/12/11 03:07:03;;;;;;;7.55;4.28;;;3.60;72.30;;;;;;5012607;28;20105;-22
2021/12/11 03:09:34;;;;;;;7.75;4.47;;;3.70;72.30;;;;;;5012451;28;20419;-23
2021/12/11 03:12:03;;;;;;;7.45;4.00;;;3.70;72.40;;;;;;5012655;28;20445;-23
2021/12/11 03:14:32;;;;;;;7.53;3.97;;;3.70;72.40;;;;;;5012205;28;20100;-23
2021/12/11 03:16:59;;;;;;;5.90;3.72;;;3.70;72.30;;;;;;5012375;28;20042;-23
2021/12/11 03:19:29;;;;;;;4.65;3.38;;;3.80;72.30;;;;;;5012150;28;20108;-23
2021/12/11 03:21:58;;;;;;;6.03;3.92;;;3.80;72.20;;;;;;5012232;28;20033;-23
2021/12/11 03:24:27;;;;;;;6.65;3.63;;;3.80;72.00;;;;;;5012167;28;20064;-24
2021/12/11 03:26:54;;;;;;;6.07;3.45;;;3.90;72.00;;;;;;5012754;28;20429;-23
2021/12/11 03:29:21;;;;;;;5.55;3.40;;;3.90;72.00;;;;;;5012338;28;20042;-22
2021/12/11 03:31:48;;;;;;;5.05;3.17;;;3.90;71.90;;;;;;4995759;28;20030;-23
2021/12/11 03:34:18;;;;;;;7.18;3.50;;;3.90;71.80;;;;;;5011468;28;20096;-24
2021/12/11 03:36:44;;;;;;;5.80;3.83;;;3.90;71.70;;;;;;5011993;28;20069;-23
2021/12/11 03:39:14;;;;;;;5.38;3.28;;;3.90;71.60;;;;;;5011792;28;20433;-23
2021/12/11 03:41:41;;;;;;;6.60;4.18;;;3.90;71.60;;;;;;5011849;28;20057;-23
2021/12/11 03:44:08;;;;;;;5.90;3.65;;;3.90;71.50;;;;;;5030604;28;20520;-23
2021/12/11 03:46:35;;;;;;;6.15;3.60;;;3.90;71.20;;;;;;5033438;28;20049;-23
2021/12/11 03:49:08;;;;;;;4.53;2.60;;;3.90;71.30;;;;;;5033743;28;20104;-22
2021/12/11 03:51:39;;;;;;;4.80;2.70;;;3.80;71.40;;;;;;5033547;28;20433;-23
2021/12/11 03:54:08;;;;;;;4.78;3.00;;;3.80;71.50;;;;;;5033673;28;20029;-22
2021/12/11 03:56:37;;;;;;;4.55;2.78;;;3.80;71.50;;;;;;5033326;28;20456;-23
2021/12/11 03:59:09;;;;;;;5.57;3.10;;;3.70;71.50;;;;;;5032714;28;20039;-23
2021/12/11 04:01:41;;;;;;;4.65;2.90;;;3.70;71.60;;;;;;5033623;28;20432;-23
2021/12/11 04:04:16;;;;;;;9.55;4.65;;;3.70;71.60;;;;;;5033291;28;20029;-22
2021/12/11 04:06:43;;;;;;;7.18;4.05;;;3.70;71.70;;;;;;5033643;28;20091;-23
2021/12/11 04:09:12;;;;;;;4.00;2.40;;;3.60;71.70;;;;;;5033597;28;20025;-23
2021/12/11 04:11:38;;;;;;;2.72;1.70;;;3.50;71.80;;;;;;5033513;28;20056;-23
2021/12/11 04:14:11;;;;;;;2.10;1.60;;;3.50;71.90;;;;;;5033470;28;20029;-23
2021/12/11 04:16:39;;;;;;;3.57;1.93;;;3.40;72.00;;;;;;5033471;28;20040;-23
2021/12/11 04:19:06;;;;;;;2.40;1.80;;;3.40;72.00;;;;;;5033252;28;20037;-23
2021/12/11 04:21:33;;;;;;;5.63;3.13;;;3.30;72.10;;;;;;5033833;28;20116;-23
2021/12/11 04:24:01;;;;;;;4.25;2.80;;;3.30;72.10;;;;;;5033378;28;20038;-23
2021/12/11 04:26:28;;;;;;;5.05;2.75;;;3.20;72.20;;;;;;5033139;28;20099;-23
2021/12/11 04:28:54;;;;;;;3.75;2.50;;;3.20;72.30;;;;;;5031832;28;20025;-23
2021/12/11 04:31:23;;;;;;;3.90;2.70;;;3.10;72.40;;;;;;5033607;28;20372;-23
2021/12/11 04:33:53;;;;;;;5.82;3.55;;;3.10;72.50;;;;;;5032614;28;20029;-22
2021/12/11 04:36:27;;;;;;;6.43;3.88;;;3.10;72.50;;;;;;5013393;28;20072;-23
2021/12/11 04:38:54;;;;;;;8.73;5.00;;;3.10;72.60;;;;;;5012620;28;20034;-23
2021/12/11 04:41:39;;;;;;;6.90;4.22;;;3.20;72.60;;;;;;5013946;28;20038;-23
2021/12/11 04:44:09;;;;;;;5.53;3.65;;;3.20;72.70;;;;;;5013532;28;20022;-23
2021/12/11 04:46:35;;;;;;;3.78;2.65;;;3.20;72.60;;;;;;5013298;28;20026;-23
2021/12/11 04:49:14;;;;;;;5.57;2.95;;;3.30;72.50;;;;;;5013076;28;20096;-23
2021/12/11 04:52:08;;;;;;;4.60;2.60;;;3.30;72.40;;;;;;5013159;28;20544;-23
2021/12/11 04:54:42;;;;;;;5.63;3.53;;;3.30;72.30;;;;;;5012804;28;20030;-23
2021/12/11 04:57:49;;;;;;;4.20;2.50;;;3.40;72.20;;;;;;5013142;28;20398;-23
2021/12/11 05:00:21;;;;;;;2.38;1.95;;;3.40;72.20;;;;;;5012934;28;20379;-23
2021/12/11 05:03:15;;;;;;;3.05;1.90;;;3.40;72.10;;;;;;5012982;28;20088;-23
2021/12/11 05:11:01;;;;;;;6.25;3.92;;;3.40;72.10;;;;;;5016464;28;20038;-23
2021/12/11 05:13:30;;;;;;;5.70;3.75;;;3.40;72.10;;;;;;5016758;28;20028;-23
2021/12/11 05:16:00;;;;;;;10.10;5.53;;;3.30;72.00;;;;;;5017251;28;20085;-22
2021/12/11 05:18:29;;;;;;;7.60;4.40;;;3.30;72.10;;;;;;5016247;28;20038;-24
2021/12/11 05:21:10;;;;;;;7.07;4.20;;;3.30;72.00;;;;;;5016547;28;20030;-23
2021/12/11 05:23:37;;;;;;;8.50;4.60;;;3.30;72.10;;;;;;5015312;28;20496;-24
2021/12/11 05:26:04;;;;;;;6.82;4.18;;;3.30;72.00;;;;;;5016690;28;20497;-23
2021/12/11 05:28:30;;;;;;;8.40;4.60;;;3.30;72.10;;;;;;5014993;28;20037;-23
2021/12/11 05:30:59;;;;;;;7.78;4.45;;;3.30;72.30;;;;;;5016662;28;20072;-23
2021/12/11 05:33:26;;;;;;;9.38;4.35;;;3.30;72.20;;;;;;5016139;28;20030;-23
2021/12/11 05:35:53;;;;;;;6.18;3.83;;;3.20;72.20;;;;;;5032733;28;20053;-23
2021/12/11 05:38:20;;;;;;;6.43;3.90;;;3.20;72.30;;;;;;5035852;28;20064;-23
2021/12/11 05:40:54;;;;;;;7.30;4.03;;;3.20;72.30;;;;;;5035895;28;20065;-22
2021/12/11 05:43:21;;;;;;;7.63;4.22;;;3.10;72.40;;;;;;5036291;28;20025;-23
2021/12/11 05:45:47;;;;;;;7.03;3.88;;;3.10;72.80;;;;;;5036187;28;20032;-23
2021/12/11 05:48:15;;;;;;;6.40;4.32;;;3.10;72.90;;;;;;5036245;28;20021;-22
2021/12/11 05:50:50;;;;;;;7.95;4.53;;;3.10;72.60;;;;;;5036052;28;20026;-23
2021/12/11 05:53:17;;;;;;;9.25;5.43;;;3.10;72.70;;;;;;5036105;28;20022;-23
2021/12/11 05:55:47;;;;;;;10.27;5.68;;;3.10;73.10;;;;;;5035905;28;20033;-23
2021/12/11 05:58:22;;;;;;;7.15;4.15;;;3.00;73.10;;;;;;5035642;28;20033;-22
2021/12/11 06:00:51;;;;;;;9.15;4.78;;;3.10;72.90;;;;;;5035665;28;20030;-23
2021/12/11 06:03:17;;;;;;;11.68;5.90;;;3.00;73.00;;;;;;5035718;28;20506;-23
2021/12/11 06:05:45;;;;;;;14.90;7.15;;;3.00;73.00;;;;;;5035517;28;20615;-23
2021/12/11 06:08:12;;;;;;;10.73;5.45;;;3.00;73.00;;;;;;5036026;28;20075;-24
2021/12/11 06:10:40;;;;;;;10.73;5.53;;;3.00;73.00;;;;;;5035756;28;20080;-24
2021/12/11 06:13:08;;;;;;;22.75;9.02;;;3.10;72.90;;;;;;5035333;28;20034;-23
2021/12/11 06:15:35;;;;;;;22.60;8.88;;;3.10;72.80;;;;;;5035610;28;20034;-23
2021/12/11 06:18:02;;;;;;;24.92;9.70;;;3.20;72.80;;;;;;5035185;28;20527;-23
2021/12/11 06:20:31;;;;;;;17.02;6.93;;;3.30;72.70;;;;;;5034249;28;20105;-24
2021/12/11 06:22:57;;;;;;;14.77;5.45;;;3.30;72.30;;;;;;5035248;28;20018;-24
2021/12/11 06:25:30;;;;;;;9.20;4.20;;;3.40;72.20;;;;;;5034238;28;20029;-23
2021/12/11 06:27:56;;;;;;;9.40;4.05;;;3.50;72.20;;;;;;5035243;28;20029;-23
2021/12/11 06:30:23;;;;;;;7.60;4.10;;;3.60;72.20;;;;;;5033601;28;20034;-23
2021/12/11 06:32:50;;;;;;;5.75;3.30;;;3.60;72.20;;;;;;5035189;28;20033;-23
2021/12/11 06:35:25;;;;;;;6.55;3.10;;;3.70;72.10;;;;;;5034983;28;20045;-23
2021/12/11 06:37:51;;;;;;;5.45;3.03;;;3.70;72.00;;;;;;5034738;28;20032;-23
2021/12/11 06:40:20;;;;;;;6.75;3.35;;;3.70;71.90;;;;;;5034623;28;20030;-23
2021/12/11 06:42:46;;;;;;;5.35;3.00;;;3.80;71.90;;;;;;5034788;28;20026;-23
2021/12/11 06:45:12;;;;;;;5.93;3.67;;;3.80;71.70;;;;;;5034707;28;20022;-24
2021/12/11 06:47:38;;;;;;;6.68;3.92;;;3.80;71.60;;;;;;5034986;28;20025;-23
2021/12/11 06:50:07;;;;;;;3.65;2.90;;;3.80;71.60;;;;;;5033385;28;20469;-23
2021/12/11 06:52:33;;;;;;;5.47;3.45;;;3.80;71.60;;;;;;5034716;28;20033;-23
2021/12/11 06:55:00;;;;;;;7.82;4.30;;;3.80;71.60;;;;;;5034596;28;20021;-24
2021/12/11 06:57:26;;;;;;;7.20;4.38;;;3.80;71.60;;;;;;5034769;28;20607;-23
2021/12/11 06:59:52;;;;;;;4.40;2.80;;;3.80;71.60;;;;;;5034794;28;20104;-24
2021/12/11 07:02:20;;;;;;;4.25;2.30;;;3.80;71.70;;;;;;5034523;28;20027;-23
2021/12/11 07:04:47;;;;;;;4.82;2.63;;;3.80;71.60;;;;;;5034532;28;20033;-24
2021/12/11 07:07:20;;;;;;;5.80;2.80;;;3.80;71.70;;;;;;5034661;28;20057;-23
2021/12/11 07:09:47;;;;;;;3.78;2.50;;;3.80;71.70;;;;;;5034365;28;20547;-23
2021/12/11 07:12:14;;;;;;;2.22;2.03;;;3.70;71.70;;;;;;5034594;28;20139;-24
2021/12/11 07:14:40;;;;;;;2.88;1.77;;;3.70;71.70;;;;;;5034430;28;20061;-24
2021/12/11 07:17:06;;;;;;;1.88;1.30;;;3.70;71.80;;;;;;5034441;28;20018;-23
2021/12/11 07:19:32;;;;;;;4.05;2.35;;;3.70;71.70;;;;;;5033942;28;20513;-23
2021/12/11 07:21:58;;;;;;;4.05;2.10;;;3.70;71.80;;;;;;5034399;28;20033;-23
2021/12/11 07:24:32;;;;;;;7.93;4.38;;;3.70;71.80;;;;;;5034382;28;20499;-24
2021/12/11 07:27:02;;;;;;;;;;;3.70;71.80;;;;;;5034726;28;20036;-23
2021/12/11 07:29:30;;;;;;;3.33;2.20;;;3.70;71.80;;;;;;5032746;28;19951;-23
2021/12/11 07:31:57;;;;;;;2.80;1.95;;;3.70;71.90;;;;;;5033813;28;20021;-23
2021/12/11 07:34:23;;;;;;;3.78;2.60;;;3.70;71.90;;;;;;5033394;28;20057;-24
2021/12/11 07:36:51;;;;;;;5.68;3.50;;;3.60;71.90;;;;;;5033773;28;20362;-23
2021/12/11 07:39:20;;;;;;;4.00;2.53;;;3.60;72.00;;;;;;5033918;28;20040;-22
2021/12/11 07:41:48;;;;;;;5.15;3.22;;;3.60;72.00;;;;;;5033697;28;20489;-23
2021/12/11 07:44:15;;;;;;;4.50;2.90;;;3.60;72.10;;;;;;5033762;28;20030;-24
2021/12/11 07:46:42;;;;;;;4.32;2.78;;;3.60;72.10;;;;;;5033564;28;20389;-23
2021/12/11 07:49:08;;;;;;;5.72;3.45;;;3.60;72.20;;;;;;5033864;28;20611;-23
2021/12/11 07:51:36;;;;;;;3.85;2.15;;;3.60;72.20;;;;;;5033687;28;20104;-23
2021/12/11 07:54:04;;;;;;;4.93;2.83;;;3.60;72.30;;;;;;5033464;28;20037;-23
2021/12/11 07:56:30;;;;;;;7.00;3.88;;;3.60;72.40;;;;;;5033319;28;20049;-24
2021/12/11 07:58:59;;;;;;;8.18;4.05;;;3.70;72.40;;;;;;5033322;28;20030;-23
2021/12/11 08:01:29;;;;;;;5.25;3.00;;;3.70;72.50;;;;;;5033896;28;20033;-23
2021/12/11 08:04:00;;;;;;;8.90;3.95;;;3.80;72.40;;;;;;5033564;28;20030;-23
2021/12/11 08:06:27;;;;;;;8.40;4.60;;;3.80;72.40;;;;;;5033512;28;20088;-24
2021/12/11 08:08:54;;;;;;;8.60;5.65;;;3.90;72.30;;;;;;5033603;28;20036;-23
2021/12/11 08:11:21;;;;;;;7.30;3.70;;;3.90;72.20;;;;;;5031987;28;20029;-24
2021/12/11 08:13:49;;;;;;;8.90;5.15;;;3.90;72.20;;;;;;5031993;28;20076;-23
2021/12/11 08:16:24;;;;;;;13.68;8.40;;;3.90;72.30;;;;;;5032982;28;20056;-24
2021/12/11 08:18:53;;;;;;;13.35;8.30;;;3.90;72.10;;;;;;5033062;28;20559;-23
2021/12/11 08:21:21;;;;;;;13.00;7.82;;;3.90;72.10;;;;;;5033401;28;20390;-24
2021/12/11 08:23:53;;;;;;;6.18;3.63;;;3.90;72.20;;;;;;5033103;28;20028;-23
2021/12/11 08:26:21;;;;;;;12.60;7.63;;;3.90;72.20;;;;;;5032917;28;20029;-22
2021/12/11 08:28:50;;;;;;;7.05;4.55;;;4.00;72.30;;;;;;5033131;28;20026;-23
2021/12/11 08:31:18;;;;;;;6.93;4.40;;;4.00;73.10;;;;;;5033262;28;20033;-23
2021/12/11 08:33:45;;;;;;;6.95;4.68;;;4.10;72.70;;;;;;5033252;28;20020;-24
2021/12/11 08:36:11;;;;;;;12.98;8.73;;;4.10;72.50;;;;;;5032804;28;20107;-23
2021/12/11 08:38:38;;;;;;;16.23;10.63;;;4.20;72.70;;;;;;5033727;28;20065;-24
2021/12/11 08:41:09;;;;;;;8.20;4.97;;;4.40;72.90;;;;;;5033551;28;20028;-23
2021/12/11 08:43:35;;;;;;;11.05;6.15;;;4.50;72.80;;;;;;5031806;28;20028;-24
2021/12/11 08:46:22;;;;;;;6.63;4.38;;;4.60;72.70;;;;;;5037112;28;20037;-23
2021/12/11 08:48:49;;;;;;;9.25;5.10;;;4.80;72.90;;;;;;5037236;28;20037;-23
2021/12/11 08:51:25;;;;;;;5.45;3.17;;;4.90;72.90;;;;;;5037146;28;20018;-23
2021/12/11 08:53:52;;;;;;;4.30;3.13;;;5.00;73.20;;;;;;5037231;28;20025;-23
2021/12/11 08:56:19;;;;;;;8.18;4.85;;;5.20;73.20;;;;;;5037053;28;20026;-23
2021/12/11 08:58:47;;;;;;;5.53;3.53;;;5.30;73.30;;;;;;5036666;28;20045;-23
2021/12/11 09:01:30;;;;;;;6.07;3.83;;;5.40;73.20;;;;;;5037257;28;20038;-23
2021/12/11 09:04:06;;;;;;;8.98;5.20;;;5.50;73.40;;;;;;5036971;28;20036;-23
2021/12/11 09:06:44;;;;;;;4.10;3.20;;;5.60;72.30;;;;;;5036518;28;20028;-24
2021/12/11 09:09:27;;;;;;;5.00;3.30;;;5.70;73.10;;;;;;5037015;28;20477;-23
2021/12/11 09:12:07;;;;;;;4.93;3.33;;;5.80;73.00;;;;;;5036587;28;20032;-23
2021/12/11 09:14:36;;;;;;;13.13;7.63;;;5.90;73.20;;;;;;5036294;28;20477;-24
2021/12/11 09:17:20;;;;;;;10.55;6.63;;;5.90;72.90;;;;;;5036594;28;20026;-23
2021/12/11 09:19:55;;;;;;;7.28;3.50;;;6.00;72.80;;;;;;5036206;28;20080;-22
2021/12/11 09:22:26;;;;;;;;;;;6.10;72.90;;;;;;5036857;28;20128;-23
2021/12/11 09:24:58;;;;;;;6.57;4.03;;;6.10;72.70;;;;;;5036571;28;19970;-24
2021/12/11 09:27:29;;;;;;;10.32;5.80;;;6.20;72.90;;;;;;5036206;28;20037;-22
2021/12/11 09:30:06;;;;;;;6.55;3.90;;;6.30;73.00;;;;;;5036202;28;20026;-24
2021/12/11 09:32:38;;;;;;;6.82;3.95;;;6.40;73.00;;;;;;5035956;28;20029;-22
2021/12/11 09:35:24;;;;;;;5.68;3.28;;;6.50;73.10;;;;;;5035809;28;20505;-23
2021/12/11 09:37:56;;;;;;;9.32;5.15;;;6.80;73.30;;;;;;5036862;28;20033;-23
2021/12/11 09:40:37;;;;;;;8.77;4.63;;;7.00;73.40;;;;;;5035805;28;20029;-23
2021/12/11 09:43:03;;;;;;;10.93;6.22;;;7.30;70.60;;;;;;5036178;28;20456;-24
2021/12/11 09:45:34;;;;;;;6.90;3.88;;;7.60;72.70;;;;;;5035926;28;20109;-23
2021/12/11 09:48:05;;;;;;;10.10;6.30;;;7.90;71.70;;;;;;5036129;28;20113;-22
2021/12/11 09:50:44;;;;;;;7.65;4.45;;;8.10;72.00;;;;;;5035651;28;20545;-23
2021/12/11 09:53:14;;;;;;;8.88;5.72;;;8.40;69.80;;;;;;5036107;28;20032;-23
2021/12/11 09:55:41;;;;;;;8.38;5.20;;;8.70;68.90;;;;;;5036288;28;20033;-23
2021/12/11 09:58:11;;;;;;;6.22;3.60;;;8.90;67.60;;;;;;5035545;28;20484;-24
2021/12/11 10:00:43;;;;;;;8.57;5.22;;;9.10;69.60;;;;;;5035806;28;20025;-23
2021/12/11 10:03:11;;;;;;;11.07;7.22;;;9.30;70.20;;;;;;5035892;28;20034;-23
2021/12/11 10:05:44;;;;;;;9.05;6.03;;;9.50;69.40;;;;;;5035620;28;20037;-24
2021/12/11 10:08:27;;;;;;;;;;;9.80;69.40;;;;;;5035929;28;20029;-23
2021/12/11 10:11:20;;;;;;;7.35;4.47;;;9.90;68.80;;;;;;5035770;28;19930;-24
2021/12/11 10:14:04;;;;;;;10.68;6.93;;;10.20;69.30;;;;;;5035196;28;20099;-23
2021/12/11 10:16:38;;;;;;;12.98;9.23;;;10.30;68.60;;;;;;5035179;28;20095;-23
2021/12/11 10:19:09;;;;;;;12.93;7.47;;;10.50;66.70;;;;;;5035144;28;20545;-24
2021/12/11 10:21:55;;;;;;;8.10;5.57;;;10.60;67.50;;;;;;5035263;28;20381;-24
2021/12/11 10:24:26;;;;;;;11.23;6.93;;;10.80;67.90;;;;;;5035335;28;20144;-24
2021/12/11 10:26:54;;;;;;;14.07;8.32;;;10.90;67.40;;;;;;5035197;28;20382;-24
2021/12/11 10:29:21;;;;;;;9.88;6.70;;;11.10;67.00;;;;;;5035382;28;20026;-24
2021/12/11 10:31:54;;;;;;;15.23;6.63;;;11.30;66.70;;;;;;5033819;28;20026;-24
2021/12/11 10:34:23;;;;;;;14.55;9.05;;;11.40;66.30;;;;;;5034934;28;20397;-24
2021/12/11 10:37:27;;;;;;;9.82;6.10;;;11.60;66.00;;;;;;5035314;28;20079;-23
2021/12/11 10:39:58;;;;;;;14.35;9.57;;;11.90;65.70;;;;;;5012970;28;20061;-24
2021/12/11 10:42:25;;;;;;;16.33;11.30;;;12.00;65.10;;;;;;4996543;28;20030;-24
2021/12/11 10:44:55;;;;;;;9.52;5.80;;;12.20;64.60;;;;;;5013048;28;20129;-24
2021/12/11 10:47:27;;;;;;;12.60;8.27;;;12.30;64.60;;;;;;5012852;28;20037;-24
2021/12/11 10:49:53;;;;;;;13.85;8.43;;;12.40;63.70;;;;;;5012916;28;20033;-24
2021/12/11 10:52:25;;;;;;;10.73;6.78;;;12.60;63.30;;;;;;5012801;28;20054;-23
2021/12/11 10:54:53;;;;;;;6.93;4.72;;;12.80;62.10;;;;;;5012841;28;20112;-24
2021/12/11 10:57:23;;;;;;;11.60;7.72;;;12.90;61.50;;;;;;5012771;28;20157;-25
2021/12/11 10:59:53;;;;;;;10.20;5.85;;;13.00;62.50;;;;;;5012648;28;20057;-24
2021/12/11 11:02:24;;;;;;;9.52;5.75;;;13.20;60.40;;;;;;5012373;28;20034;-24
2021/12/11 11:04:54;;;;;;;10.27;6.03;;;13.30;60.70;;;;;;5012541;28;20472;-24
2021/12/11 11:07:22;;;;;;;7.55;4.20;;;13.40;60.10;;;;;;5012084;28;20085;-24
2021/12/11 11:09:50;;;;;;;6.15;3.70;;;13.50;60.60;;;;;;5012596;28;20041;-25
2021/12/11 11:12:20;;;;;;;6.70;3.83;;;13.60;60.20;;;;;;5012278;28;20492;-25
2021/12/11 11:14:48;;;;;;;6.95;3.95;;;13.70;60.60;;;;;;5012504;28;20026;-24
2021/12/11 11:17:18;;;;;;;4.55;2.90;;;13.90;60.60;;;;;;5032971;28;20033;-25
2021/12/11 11:19:46;;;;;;;6.35;4.20;;;14.00;60.40;;;;;;5033920;28;20033;-24
2021/12/11 11:22:16;;;;;;;6.10;3.90;;;14.20;60.10;;;;;;5034352;28;20030;-24
2021/12/11 11:24:47;;;;;;;4.72;3.30;;;14.30;59.60;;;;;;5034054;28;20022;-25
2021/12/11 11:27:14;;;;;;;4.10;2.42;;;14.40;59.40;;;;;;5034350;28;20029;-24
2021/12/11 11:29:43;;;;;;;5.75;3.22;;;14.60;59.00;;;;;;5033952;28;20028;-24
2021/12/11 11:32:14;;;;;;;6.10;4.00;;;14.70;59.10;;;;;;5034209;28;20057;-24
2021/12/11 11:34:41;;;;;;;3.78;2.92;;;14.80;57.20;;;;;;5033658;28;20050;-26
2021/12/11 11:37:15;;;;;;;6.32;3.40;;;14.90;57.50;;;;;;5033818;28;20159;-24
2021/12/11 11:39:43;;;;;;;4.13;2.47;;;14.90;57.40;;;;;;5034032;28;20048;-24
2021/12/11 11:42:16;;;;;;;4.68;3.13;;;15.00;55.90;;;;;;5033818;28;20494;-24
2021/12/11 11:44:45;;;;;;;4.47;2.80;;;15.10;55.80;;;;;;5033629;28;20029;-24
2021/12/11 11:47:14;;;;;;;3.78;2.55;;;15.20;56.90;;;;;;5033927;28;20112;-24
2021/12/11 11:49:41;;;;;;;4.97;2.72;;;15.30;56.70;;;;;;5033508;28;20024;-24
2021/12/11 11:52:20;;;;;;;5.72;3.13;;;15.40;56.40;;;;;;5033861;28;20037;-24
2021/12/11 11:54:49;;;;;;;5.65;4.03;;;15.60;56.10;;;;;;5034433;28;20450;-25
2021/12/11 11:57:35;;;;;;;5.63;3.55;;;15.70;53.80;;;;;;5033780;28;20025;-24
2021/12/11 12:00:07;;;;;;;4.03;2.92;;;15.70;53.40;;;;;;5033586;28;20041;-25
2021/12/11 12:02:33;;;;;;;6.78;3.10;;;15.80;54.60;;;;;;5033219;28;20021;-24
2021/12/11 12:05:00;;;;;;;3.70;2.63;;;15.90;53.40;;;;;;5033276;28;20072;-24
2021/12/11 12:07:29;;;;;;;5.15;2.97;;;16.00;54.80;;;;;;5033670;28;20609;-25
2021/12/11 12:09:59;;;;;;;3.72;2.53;;;16.20;54.60;;;;;;5033547;28;20485;-25
2021/12/11 12:12:27;;;;;;;3.00;2.05;;;16.30;54.30;;;;;;5033090;28;20026;-25
2021/12/11 12:14:56;;;;;;;6.45;3.92;;;16.50;54.30;;;;;;5033224;28;20548;-24
2021/12/11 12:17:25;;;;;;;2.90;2.25;;;16.70;52.50;;;;;;5033207;28;20041;-25
2021/12/11 12:19:53;;;;;;;4.82;3.08;;;16.90;53.30;;;;;;5032174;28;20032;-25
2021/12/11 12:22:21;;;;;;;2.88;2.00;;;17.10;51.30;;;;;;5033259;28;20036;-25
2021/12/11 12:24:52;;;;;;;3.65;2.22;;;17.10;52.70;;;;;;5033431;28;20022;-24
2021/12/11 12:27:22;;;;;;;3.42;2.30;;;17.20;52.80;;;;;;5033156;28;20477;-24
2021/12/11 12:29:49;;;;;;;3.58;2.05;;;17.30;52.70;;;;;;5033455;28;20017;-24
2021/12/11 12:32:25;;;;;;;4.03;2.85;;;17.40;52.70;;;;;;5033144;28;20049;-24
2021/12/11 12:34:55;;;;;;;3.72;2.53;;;17.40;52.20;;;;;;5032705;28;20049;-24
2021/12/11 12:37:23;;;;;;;4.00;2.90;;;17.40;52.00;;;;;;5033035;28;20029;-25
2021/12/11 12:39:52;;;;;;;3.72;2.10;;;17.40;52.00;;;;;;5032864;28;20029;-24
2021/12/11 12:42:50;;;;;;;2.80;2.08;;;17.30;52.20;;;;;;5033180;28;20033;-25
2021/12/11 12:45:34;;;;;;;3.75;2.35;;;17.30;52.40;;;;;;5032961;28;20025;-24
2021/12/11 12:48:17;;;;;;;2.78;2.28;;;17.30;52.30;;;;;;5033323;28;20182;-25
2021/12/11 12:50:52;;;;;;;3.65;2.00;;;17.40;52.20;;;;;;5032874;28;20028;-24
2021/12/11 12:53:18;;;;;;;4.07;2.33;;;17.40;52.20;;;;;;5033172;28;20462;-25
2021/12/11 12:55:54;;;;;;;5.03;2.70;;;17.40;52.30;;;;;;5033146;28;20171;-24
2021/12/11 12:58:30;;;;;;;5.47;2.50;;;17.50;52.20;;;;;;5032698;28;20520;-24
2021/12/11 13:01:13;;;;;;;5.68;3.50;;;17.70;51.90;;;;;;5032840;28;20151;-25
2021/12/11 13:03:41;;;;;;;6.43;3.25;;;17.70;51.70;;;;;;5033094;28;20461;-25
2021/12/11 13:06:13;;;;;;;6.65;4.00;;;17.70;51.80;;;;;;5032729;28;20022;-25
2021/12/11 13:08:47;;;;;;;7.28;4.45;;;17.80;51.60;;;;;;5031576;28;20022;-24
2021/12/11 13:11:41;;;;;;;7.70;4.40;;;17.90;50.70;;;;;;5032737;28;20025;-25
2021/12/11 13:14:07;;;;;;;4.80;2.97;;;17.90;50.20;;;;;;5033023;28;20022;-24
2021/12/11 13:16:39;;;;;;;5.53;3.38;;;17.90;51.10;;;;;;5032422;28;20036;-24
2021/12/11 13:19:10;;;;;;;5.18;3.65;;;17.90;51.10;;;;;;5032741;28;20034;-25
2021/12/11 13:21:53;;;;;;;6.07;3.50;;;17.90;50.70;;;;;;5031467;28;20021;-25
2021/12/11 13:24:20;;;;;;;5.35;3.33;;;17.90;50.30;;;;;;5032557;28;20033;-25
2021/12/11 13:26:51;;;;;;;6.68;3.30;;;17.90;50.80;;;;;;5033167;28;20029;-24